createdAt,value
2023-09-10T00:02:58.081Z,83
2023-09-10T00:06:23.177Z,83
2023-09-10T00:09:48.363Z,82
2023-09-10T00:13:13.553Z,82
2023-09-10T00:16:38.764Z,83
2023-09-10T00:20:04.828Z,81
2023-09-10T00:23:29.959Z,83
2023-09-10T00:26:55.134Z,83
2023-09-10T00:30:20.309Z,83
2023-09-10T00:33:45.492Z,83
2023-09-10T00:37:10.670Z,83
2023-09-10T00:40:35.832Z,82
2023-09-10T00:44:01.048Z,82
2023-09-10T00:47:26.209Z,81
2023-09-10T00:50:51.389Z,82
2023-09-10T00:54:16.588Z,82
2023-09-10T00:57:41.729Z,82
2023-09-10T01:01:06.980Z,81
2023-09-10T01:04:32.132Z,81
2023-09-10T01:07:57.373Z,81
2023-09-10T01:11:22.563Z,81
2023-09-10T01:14:47.733Z,80
2023-09-10T01:18:12.955Z,81
2023-09-10T01:21:38.133Z,80
2023-09-10T01:25:03.310Z,80
2023-09-10T01:28:28.527Z,80
2023-09-10T01:31:53.673Z,80
2023-09-10T01:35:18.839Z,80
2023-09-10T01:38:43.995Z,80
2023-09-10T01:42:09.157Z,81
2023-09-10T01:45:34.381Z,82
2023-09-10T01:48:59.525Z,81
2023-09-10T01:52:24.705Z,81
2023-09-10T01:55:49.920Z,81
2023-09-10T01:59:15.258Z,81
2023-09-10T02:02:40.425Z,81
2023-09-10T02:06:05.477Z,80
2023-09-10T02:09:30.634Z,80
2023-09-10T02:12:55.851Z,81
2023-09-10T02:16:21.053Z,80
2023-09-10T02:19:46.280Z,81
2023-09-10T02:23:11.448Z,82
2023-09-10T02:26:36.615Z,82
2023-09-10T02:30:01.813Z,81
2023-09-10T02:33:27.018Z,81
2023-09-10T02:36:52.155Z,80
2023-09-10T02:40:17.284Z,82
2023-09-10T02:43:42.481Z,82
2023-09-10T02:47:07.624Z,80
2023-09-10T02:50:32.765Z,79
2023-09-10T02:53:57.988Z,79
2023-09-10T02:57:23.122Z,79
2023-09-10T03:00:48.287Z,79
2023-09-10T03:04:13.461Z,80
2023-09-10T03:07:38.660Z,79
2023-09-10T03:11:03.830Z,80
2023-09-10T03:14:28.960Z,80
2023-09-10T03:17:54.183Z,80
2023-09-10T03:21:19.319Z,80
2023-09-10T03:24:44.492Z,80
2023-09-10T03:28:09.675Z,80
2023-09-10T03:31:34.829Z,80
2023-09-10T03:35:00.053Z,80
2023-09-10T03:38:25.187Z,80
2023-09-10T03:41:50.377Z,80
2023-09-10T03:45:15.565Z,80
2023-09-10T03:48:40.851Z,80
2023-09-10T03:52:05.850Z,80
2023-09-10T03:55:31.015Z,80
2023-09-10T03:58:56.185Z,80
2023-09-10T04:02:21.386Z,80
2023-09-10T04:05:46.525Z,81
2023-09-10T04:09:11.692Z,80
2023-09-10T04:12:36.868Z,79
2023-09-10T04:16:02.021Z,79
2023-09-10T04:19:27.224Z,79
2023-09-10T04:22:52.404Z,81
2023-09-10T04:26:17.579Z,79
2023-09-10T04:29:42.732Z,79
2023-09-10T04:33:07.909Z,79
2023-09-10T04:36:33.107Z,79
2023-09-10T04:39:58.231Z,79
2023-09-10T04:43:23.390Z,80
2023-09-10T04:46:48.636Z,79
2023-09-10T04:50:13.921Z,79
2023-09-10T04:53:38.968Z,82
2023-09-10T04:57:04.101Z,80
2023-09-10T05:00:29.271Z,79
2023-09-10T05:03:54.511Z,79
2023-09-10T05:07:19.670Z,79
2023-09-10T05:10:44.897Z,79
2023-09-10T05:14:10.049Z,81
2023-09-10T05:17:35.268Z,81
2023-09-10T05:21:00.351Z,80
2023-09-10T05:24:25.514Z,79
2023-09-10T05:27:50.721Z,80
2023-09-10T05:31:15.861Z,80
2023-09-10T05:34:41.065Z,80
2023-09-10T05:38:06.200Z,81
2023-09-10T05:41:31.359Z,81
2023-09-10T05:44:56.558Z,82
2023-09-10T05:48:21.714Z,83
2023-09-10T05:51:46.949Z,83
2023-09-10T05:55:12.173Z,84
2023-09-10T05:58:37.489Z,83
2023-09-10T06:02:02.608Z,83
2023-09-10T06:05:27.669Z,83
2023-09-10T06:08:52.889Z,82
2023-09-10T06:12:18.060Z,82
2023-09-10T06:15:43.231Z,83
2023-09-10T06:19:08.812Z,82
2023-09-10T06:22:33.934Z,82
2023-09-10T06:25:59.193Z,81
2023-09-10T06:29:24.402Z,82
2023-09-10T06:32:49.614Z,84
2023-09-10T06:36:14.757Z,84
2023-09-10T06:39:39.980Z,84
2023-09-10T06:43:05.199Z,84
2023-09-10T06:46:30.333Z,83
2023-09-10T06:49:55.586Z,83
2023-09-10T06:53:20.745Z,83
2023-09-10T06:56:45.839Z,83
2023-09-10T07:00:11.001Z,83
2023-09-10T07:03:36.249Z,83
2023-09-10T07:07:01.396Z,81
2023-09-10T07:10:26.614Z,81
2023-09-10T07:13:51.830Z,81
2023-09-10T07:17:17.097Z,81
2023-09-10T07:20:42.233Z,78
2023-09-10T07:24:07.458Z,79
2023-09-10T07:27:32.640Z,78
2023-09-10T07:30:57.830Z,77
2023-09-10T07:34:23.036Z,78
2023-09-10T07:37:48.270Z,78
2023-09-10T07:41:13.508Z,78
2023-09-10T07:44:38.712Z,78
2023-09-10T07:48:03.938Z,78
2023-09-10T07:51:29.097Z,77
2023-09-10T07:54:54.322Z,77
2023-09-10T07:58:19.516Z,75
2023-09-10T08:01:44.792Z,75
2023-09-10T08:05:09.947Z,74
2023-09-10T08:08:35.143Z,74
2023-09-10T08:12:00.403Z,75
2023-09-10T08:15:25.639Z,75
2023-09-10T08:18:50.827Z,71
2023-09-10T08:22:16.012Z,73
2023-09-10T08:25:41.205Z,74
2023-09-10T08:29:06.467Z,74
2023-09-10T08:32:31.673Z,75
2023-09-10T08:35:56.907Z,74
2023-09-10T08:39:22.050Z,73
2023-09-10T08:42:47.266Z,70
2023-09-10T08:46:12.503Z,71
2023-09-10T08:49:37.702Z,70
2023-09-10T08:53:02.952Z,72
2023-09-10T08:56:28.112Z,68
2023-09-10T08:59:53.296Z,69
2023-09-10T09:03:18.631Z,70
2023-09-10T09:06:43.736Z,69
2023-09-10T09:10:08.945Z,70
2023-09-10T09:13:34.162Z,70
2023-09-10T09:16:59.403Z,69
2023-09-10T09:20:24.575Z,69
2023-09-10T09:23:49.758Z,70
2023-09-10T09:27:14.991Z,70
2023-09-10T09:30:40.193Z,67
2023-09-10T09:34:05.353Z,69
2023-09-10T09:37:30.555Z,69
2023-09-10T09:40:55.822Z,69
2023-09-10T09:44:21.011Z,68
2023-09-10T09:47:46.130Z,66
2023-09-10T09:51:11.399Z,66
2023-09-10T09:54:36.561Z,64
2023-09-10T09:58:01.791Z,64
2023-09-10T10:01:27.120Z,65
2023-09-10T10:04:52.222Z,64
2023-09-10T10:08:17.423Z,64
2023-09-10T10:11:42.649Z,63
2023-09-10T10:15:07.837Z,64
2023-09-10T10:18:33.165Z,67
2023-09-10T10:21:58.268Z,64
2023-09-10T10:25:23.476Z,64
2023-09-10T10:28:48.767Z,64
2023-09-10T10:32:14.015Z,64
2023-09-10T10:35:39.148Z,62
2023-09-10T10:39:04.313Z,62
2023-09-10T10:42:29.554Z,61
2023-09-10T10:45:54.785Z,64
2023-09-10T10:49:19.984Z,62
2023-09-10T10:52:45.204Z,58
2023-09-10T10:56:10.420Z,61
2023-09-10T10:59:35.633Z,61
2023-09-10T11:03:00.878Z,60
2023-09-10T11:06:26.071Z,59
2023-09-10T11:09:51.341Z,59
2023-09-10T11:13:16.564Z,60
2023-09-10T11:16:43.872Z,59
2023-09-10T11:20:09.196Z,61
2023-09-10T11:23:43.583Z,59
2023-09-10T11:27:17.246Z,59
2023-09-10T11:30:43.725Z,59
2023-09-10T11:34:15.109Z,57
2023-09-10T11:37:40.396Z,60
2023-09-10T11:41:06.889Z,60
2023-09-10T11:44:34.377Z,58
2023-09-10T11:48:01.974Z,58
2023-09-10T11:51:33.916Z,58
2023-09-10T11:55:03.189Z,58
2023-09-10T11:58:38.682Z,59
2023-09-10T12:02:09.910Z,58
2023-09-10T12:05:35.111Z,55
2023-09-10T12:09:00.338Z,55
2023-09-10T12:12:25.548Z,50
2023-09-10T12:15:50.794Z,55
2023-09-10T12:19:16.050Z,54
2023-09-10T12:22:41.234Z,53
2023-09-10T12:26:06.471Z,55
2023-09-10T12:29:31.730Z,55
2023-09-10T12:32:57.276Z,54
2023-09-10T12:36:22.507Z,55
2023-09-10T12:39:47.810Z,55
2023-09-10T12:43:13.048Z,53
2023-09-10T12:46:38.323Z,50
2023-09-10T12:50:03.536Z,52
2023-09-10T12:53:32.478Z,55
2023-09-10T12:57:04.944Z,56
2023-09-10T13:00:37.612Z,55
2023-09-10T13:04:14.364Z,55
2023-09-10T13:07:44.826Z,52
2023-09-10T13:11:10.152Z,54
2023-09-10T13:14:35.371Z,54
2023-09-10T13:18:01.519Z,54
2023-09-10T13:21:26.604Z,53
2023-09-10T13:24:51.876Z,53
2023-09-10T13:28:26.501Z,52
2023-09-10T13:32:41.656Z,52
2023-09-10T13:37:21.667Z,53
2023-09-10T13:40:56.329Z,53
2023-09-10T13:44:22.303Z,51
2023-09-10T13:48:30.064Z,51
2023-09-10T13:52:51.492Z,50
2023-09-10T13:56:33.099Z,50
2023-09-10T14:00:20.205Z,52
2023-09-10T14:04:14.953Z,53
2023-09-10T14:07:49.137Z,53
2023-09-10T14:11:52.560Z,53
2023-09-10T14:15:26.852Z,53
2023-09-10T14:19:48.540Z,52
2023-09-10T14:23:33.946Z,49
2023-09-10T14:26:59.174Z,53
2023-09-10T14:30:24.417Z,52
2023-09-10T14:33:49.705Z,51
2023-09-10T14:37:14.827Z,50
2023-09-10T14:40:40.045Z,53
2023-09-10T14:44:05.321Z,54
2023-09-10T14:47:30.612Z,53
2023-09-10T14:50:55.899Z,54
2023-09-10T14:54:21.082Z,55
2023-09-10T14:57:46.395Z,55
2023-09-10T15:01:11.624Z,55
2023-09-10T15:04:36.843Z,53
2023-09-10T15:08:02.115Z,53
2023-09-10T15:46:23.721Z,54
2023-09-10T15:49:48.891Z,55
2023-09-10T15:53:14.222Z,55
2023-09-10T15:56:39.427Z,54
2023-09-10T16:00:04.651Z,55
2023-09-10T16:03:29.991Z,55
2023-09-10T16:06:55.135Z,54
2023-09-10T16:10:20.395Z,55
2023-09-10T16:13:45.618Z,56
2023-09-10T16:17:10.857Z,56
2023-09-10T16:20:36.108Z,56
2023-09-10T16:24:01.340Z,56
2023-09-10T16:27:26.567Z,59
2023-09-10T16:30:51.803Z,60
2023-09-10T16:34:17.042Z,65
2023-09-10T16:37:42.317Z,60
2023-09-10T16:41:07.547Z,59
2023-09-10T16:44:32.792Z,61
2023-09-10T16:47:58.040Z,61
2023-09-10T16:51:23.225Z,60
2023-09-10T16:54:49.235Z,63
2023-09-10T16:58:14.440Z,62
2023-09-10T17:01:39.665Z,61
2023-09-10T17:05:04.905Z,63
2023-09-10T17:08:30.188Z,62
2023-09-10T17:11:55.392Z,63
2023-09-10T17:15:20.634Z,66
2023-09-10T17:18:45.888Z,64
2023-09-10T17:22:11.103Z,62
2023-09-10T17:25:36.334Z,62
2023-09-10T17:29:01.613Z,62
2023-09-10T17:32:26.864Z,65
2023-09-10T17:35:52.061Z,62
2023-09-10T17:39:17.341Z,61
2023-09-10T17:42:42.572Z,64
2023-09-10T17:46:07.823Z,63
2023-09-10T17:49:33.023Z,62
2023-09-10T17:52:58.252Z,63
2023-09-10T17:56:23.536Z,63
2023-09-10T17:59:48.708Z,70
2023-09-10T18:03:14.143Z,65
2023-09-10T18:06:39.266Z,66
2023-09-10T18:10:04.508Z,72
2023-09-10T18:13:29.747Z,67
2023-09-10T18:16:55.030Z,67
2023-09-10T18:20:20.382Z,67
2023-09-10T18:23:45.570Z,68
2023-09-10T18:27:10.836Z,68
2023-09-10T18:30:36.070Z,68
2023-09-10T18:34:01.305Z,69
2023-09-10T18:37:26.546Z,69
2023-09-10T18:40:51.762Z,70
2023-09-10T18:44:17.057Z,72
2023-09-10T18:47:42.253Z,73
2023-09-10T18:51:07.443Z,73
2023-09-10T18:54:32.674Z,73
2023-09-10T18:57:57.882Z,72
2023-09-10T19:01:23.139Z,72
2023-09-10T19:04:48.319Z,73
2023-09-10T19:08:13.566Z,77
2023-09-10T19:11:38.872Z,79
2023-09-10T19:15:04.045Z,79
2023-09-10T19:18:29.290Z,80
2023-09-10T19:21:54.491Z,77
2023-09-10T19:25:19.711Z,76
2023-09-10T19:28:44.939Z,76
2023-09-10T19:32:10.167Z,74
2023-09-10T19:35:35.384Z,76
2023-09-10T19:39:00.575Z,78
2023-09-10T19:42:25.796Z,80
2023-09-10T19:45:51.051Z,76
2023-09-10T19:49:16.266Z,73
2023-09-10T19:52:41.484Z,73
2023-09-10T19:56:06.691Z,76
2023-09-10T19:59:31.936Z,79
2023-09-10T20:02:57.179Z,80
2023-09-10T20:06:22.371Z,78
2023-09-10T20:09:47.567Z,78
2023-09-10T20:13:12.716Z,79
2023-09-10T20:16:37.971Z,73
2023-09-10T20:20:03.160Z,73
2023-09-10T20:23:28.401Z,77
2023-09-10T20:26:53.542Z,73
2023-09-10T20:30:18.774Z,77
2023-09-10T20:33:44.165Z,77
2023-09-10T20:37:09.230Z,80
2023-09-10T20:40:34.426Z,74
2023-09-10T20:43:59.658Z,75
2023-09-10T20:47:24.866Z,75
2023-09-10T20:50:50.097Z,77
2023-09-10T20:54:15.308Z,74
2023-09-10T20:57:40.544Z,74
2023-09-10T21:01:05.722Z,80
2023-09-10T21:04:31.053Z,81
2023-09-10T21:07:56.286Z,79
2023-09-10T21:11:21.409Z,74
2023-09-10T21:14:46.650Z,74
2023-09-10T21:18:11.843Z,78
2023-09-10T21:21:37.021Z,75
2023-09-10T21:25:02.248Z,75
2023-09-10T21:28:27.480Z,74
2023-09-10T21:31:52.726Z,74
2023-09-10T21:35:17.887Z,76
2023-09-10T21:38:43.280Z,81
2023-09-10T21:42:08.335Z,79
2023-09-10T21:45:33.563Z,78
2023-09-10T21:48:58.719Z,78
2023-09-10T21:52:23.963Z,80
2023-09-10T21:55:49.168Z,77
2023-09-10T21:59:14.499Z,79
2023-09-10T22:02:39.753Z,80
2023-09-10T22:06:04.876Z,79
2023-09-10T22:09:30.070Z,80
2023-09-10T22:12:55.293Z,79
2023-09-10T22:16:20.523Z,75
2023-09-10T22:19:45.770Z,75
2023-09-10T22:23:10.906Z,77
2023-09-10T22:26:36.058Z,78
2023-09-10T22:30:01.275Z,81
2023-09-10T22:33:26.543Z,76
2023-09-10T22:36:51.708Z,80
2023-09-10T22:40:16.908Z,79
2023-09-10T22:43:42.126Z,79
2023-09-10T22:47:07.311Z,78
2023-09-10T22:50:32.537Z,78
2023-09-10T22:53:57.820Z,77
2023-09-10T22:57:22.968Z,78
2023-09-10T23:00:48.154Z,76
2023-09-10T23:04:13.399Z,78
2023-09-10T23:07:38.578Z,77
2023-09-10T23:11:03.797Z,81
2023-09-10T23:14:28.956Z,78
2023-09-10T23:17:54.170Z,79
2023-09-10T23:21:19.317Z,79
2023-09-10T23:24:44.473Z,79
2023-09-10T23:28:09.685Z,79
2023-09-10T23:31:34.854Z,82
2023-09-10T23:35:00.058Z,81
2023-09-10T23:38:25.245Z,76
2023-09-10T23:41:50.420Z,79
2023-09-10T23:45:15.641Z,81
2023-09-10T23:48:41.135Z,78
2023-09-10T23:52:05.980Z,80
2023-09-10T23:55:31.191Z,79
2023-09-10T23:58:56.362Z,79
